Kaisho Maru — JD3221 — position and weather

sailwx.info

Track history (hours):
 
Tides and Currents Weather Stations Pressure Air Temp Water Temp Dewpoint Dewpoint Depression Visibility Wind Speed Wind Dir Waves Ship Positions

Kaisho Maru

Last reported at 2017-Dec-11 17:01 UTC. Time now 2017-Dec-12 12:27 UTC.
Position N 35°22' E 139°41'.

Length 74 m; draft 4.5 m.

Type: Cargo ship. MMSI: 431002702.

Date/timePositionNaut miles runAvg speedWind from/ knotsBaromVisibWave heightAir tempDewpointWater temp
2017-Dec-11 17:01N 35°22' E 139°41'0 0.0
2017-Dec-11 16:31N 35°22' E 139°41'0 0.0
2017-Dec-11 16:00N 35°22' E 139°41'0 0.0
2017-Dec-11 15:30N 35°22' E 139°41'0 0.0
2017-Dec-11 15:00N 35°22' E 139°41'0 0.0
2017-Dec-11 14:30N 35°22' E 139°41'0 0.1
2017-Dec-11 14:00N 35°22' E 139°41'0 0.0
2017-Dec-11 13:30N 35°22' E 139°41'0 0.0
2017-Dec-11 13:00N 35°22' E 139°41'0 0.0
2017-Dec-11 12:30N 35°22' E 139°41'0 0.0
2017-Dec-11 12:00N 35°22' E 139°41'0 0.0
2017-Dec-11 11:30N 35°22' E 139°41'0 0.0
2017-Dec-11 11:00N 35°22' E 139°41'0 0.0
2017-Dec-11 10:30N 35°22' E 139°41'0 0.0
2017-Dec-11 10:00N 35°22' E 139°41'0 0.0
2017-Dec-11 09:31N 35°22' E 139°41'0 0.0
2017-Dec-11 09:00N 35°22' E 139°41'0 0.0
2017-Dec-11 08:31N 35°22' E 139°41'0 0.0
2017-Dec-11 08:01N 35°22' E 139°41'0 0.0
2017-Dec-11 07:31N 35°22' E 139°41'0 0.0
2017-Dec-11 06:55N 35°22' E 139°41'0 0.0
2017-Dec-11 06:22N 35°22' E 139°41'0 0.0
2017-Dec-11 05:56N 35°22' E 139°41'0 0.0
2017-Dec-11 05:29N 35°22' E 139°41'0 0.0
2017-Dec-11 04:59N 35°22' E 139°41'0 0.0
2017-Dec-11 04:29N 35°22' E 139°41'0 0.0
2017-Dec-11 03:59N 35°22' E 139°41'0 0.0
2017-Dec-11 03:29N 35°22' E 139°41'0 0.0
2017-Dec-11 02:58N 35°22' E 139°41'0 0.0
2017-Dec-11 02:28N 35°22' E 139°41'0 0.0
2017-Dec-11 01:59N 35°22' E 139°41'0 0.0
2017-Dec-11 01:28N 35°22' E 139°41'0 0.0
2017-Dec-11 00:58N 35°22' E 139°41'0 0.0
2017-Dec-11 00:29N 35°22' E 139°41'0 0.0
2017-Dec-10 23:59N 35°22' E 139°41'0 0.0
2017-Dec-10 23:26N 35°22' E 139°41'0 0.0
2017-Dec-10 22:58N 35°22' E 139°41'0 0.0
2017-Dec-10 22:29N 35°22' E 139°41'0 0.0
2017-Dec-10 21:58N 35°22' E 139°41'0 0.0
2017-Dec-10 21:28N 35°22' E 139°41'0 0.0
2017-Dec-10 20:58N 35°22' E 139°41'0 0.0
2017-Dec-10 20:28N 35°22' E 139°41'0 0.0
2017-Dec-10 19:58N 35°22' E 139°41'0 0.0
2017-Dec-10 19:28N 35°22' E 139°41'0 0.0
2017-Dec-10 18:58N 35°22' E 139°41'0 0.0
2017-Dec-10 18:28N 35°22' E 139°41'0 0.0
2017-Dec-10 18:00N 35°22' E 139°41'4 8.3
2017-Dec-10 17:30N 35°25' E 139°44'510.9
2017-Dec-10 17:00N 35°28' E 139°49'711.1
2017-Dec-10 16:24N 35°32' E 139°56'410.9
2017-Dec-10 16:01N 35°33' E 140°01'5 9.1
2017-Dec-10 15:30N 35°33' E 140°06'0 0.0
2017-Dec-10 01:27N 35°33' E 140°07'3 5.7
2017-Dec-10 01:00N 35°34' E 140°04'0 0.0
2017-Dec-10 00:30N 35°34' E 140°04'0 0.0
2017-Dec-09 23:57N 35°34' E 140°04'0 0.1
2017-Dec-09 23:30N 35°34' E 140°04'0 0.0
2017-Dec-09 22:57N 35°34' E 140°04'0 0.1
2017-Dec-09 22:30N 35°34' E 140°04'0 0.0
2017-Dec-09 22:00N 35°34' E 140°04'0 0.1
2017-Dec-09 21:30N 35°34' E 140°04'0 0.1
2017-Dec-09 21:00N 35°34' E 140°04'0 0.0
2017-Dec-09 20:21N 35°34' E 140°04'0 0.0
2017-Dec-09 19:57N 35°34' E 140°04'0 0.0
2017-Dec-09 19:30N 35°34' E 140°04'0 0.0
2017-Dec-09 18:57N 35°34' E 140°04'0 0.0
2017-Dec-09 18:30N 35°34' E 140°04'0 0.0
2017-Dec-09 17:57N 35°34' E 140°04'0 0.0
2017-Dec-09 17:30N 35°34' E 140°04'0 0.0
2017-Dec-09 17:00N 35°34' E 140°04'0 0.0
2017-Dec-09 16:30N 35°34' E 140°04'0 0.1
2017-Dec-09 15:56N 35°34' E 140°04'0 0.1
2017-Dec-09 15:30N 35°34' E 140°04'0 0.0
2017-Dec-09 15:00N 35°34' E 140°04'0 0.0
2017-Dec-09 14:27N 35°34' E 140°04'0 0.0
2017-Dec-09 13:57N 35°34' E 140°04'0 0.0
2017-Dec-09 13:29N 35°34' E 140°04'0 0.0
2017-Dec-09 13:00N 35°34' E 140°04'0 0.0
2017-Dec-09 12:29N 35°34' E 140°04'0 0.0
2017-Dec-09 12:00N 35°34' E 140°04'0 0.0
2017-Dec-09 11:27N 35°34' E 140°04'0 0.0
2017-Dec-09 10:56N 35°34' E 140°04'0 0.0
2017-Dec-09 10:27N 35°34' E 140°04'0 0.0
2017-Dec-09 09:59N 35°34' E 140°04'0 0.0
2017-Dec-09 09:30N 35°34' E 140°04'0 0.0
2017-Dec-09 09:00N 35°34' E 140°04'0 0.0
2017-Dec-09 08:27N 35°34' E 140°04'0 0.0
2017-Dec-09 07:57N 35°34' E 140°04'0 0.2
2017-Dec-09 07:30N 35°34' E 140°04'0 0.1
2017-Dec-09 06:59N 35°34' E 140°04'0 0.0
2017-Dec-09 06:26N 35°34' E 140°04'0 0.0
2017-Dec-09 06:00N 35°34' E 140°04'0 0.0
2017-Dec-09 05:29N 35°34' E 140°04'0 0.0
2017-Dec-09 04:56N 35°34' E 140°04'0 0.0
2017-Dec-09 04:30N 35°34' E 140°04'0 0.0
2017-Dec-09 03:57N 35°34' E 140°04'0 0.0
2017-Dec-09 03:26N 35°34' E 140°04'0 0.0
2017-Dec-09 03:00N 35°34' E 140°04'0 0.0
2017-Dec-09 02:30N 35°34' E 140°04'0 0.0
2017-Dec-09 01:56N 35°34' E 140°04'4 8.3
2017-Dec-09 01:28N 35°33' E 139°59'612.3
2017-Dec-09 01:00N 35°30' E 139°53'612.1
2017-Dec-09 00:30N 35°27' E 139°47'4 7.5
2017-Dec-09 00:01N 35°27' E 139°42'0 0.0
2017-Dec-08 23:30N 35°27' E 139°42'0 0.0
2017-Dec-08 23:01N 35°27' E 139°42'0 0.1
2017-Dec-08 22:28N 35°27' E 139°42'0 0.0
2017-Dec-08 22:00N 35°27' E 139°42'0 0.0
2017-Dec-08 21:31N 35°27' E 139°42'0 0.1
2017-Dec-08 20:58N 35°27' E 139°42'0 0.1
2017-Dec-08 20:31N 35°27' E 139°42'0 0.0
2017-Dec-08 20:00N 35°27' E 139°42'0 0.1
2017-Dec-08 19:30N 35°27' E 139°42'0 0.1
2017-Dec-08 19:01N 35°27' E 139°42'0 0.1
2017-Dec-08 18:31N 35°27' E 139°42'0 0.0
2017-Dec-08 18:00N 35°27' E 139°42'0 0.0
2017-Dec-08 17:30N 35°27' E 139°42'0 0.0
2017-Dec-08 17:00N 35°27' E 139°42'0 0.0
2017-Dec-08 16:30N 35°27' E 139°42'0 0.1
2017-Dec-08 16:01N 35°27' E 139°42'0 0.1
2017-Dec-08 15:30N 35°27' E 139°42'0 0.1
2017-Dec-08 15:01N 35°27' E 139°42'0 0.0
2017-Dec-08 14:31N 35°27' E 139°42'0 0.0
2017-Dec-08 14:01N 35°27' E 139°42'0 0.1
2017-Dec-08 13:31N 35°27' E 139°42'0 0.0
2017-Dec-08 12:54N 35°27' E 139°42'0 0.0
2017-Dec-08 12:30N 35°27' E 139°42'0 0.0
2017-Dec-08 12:00N 35°27' E 139°42'0 0.0
2017-Dec-08 11:30N 35°27' E 139°42'0 0.0
2017-Dec-08 11:00N 35°27' E 139°42'0 0.0
2017-Dec-08 10:30N 35°27' E 139°42'0 0.0
2017-Dec-08 10:00N 35°27' E 139°42'0 0.0
2017-Dec-08 09:30N 35°27' E 139°42'0 0.0
2017-Dec-08 09:00N 35°27' E 139°42'0 0.0
2017-Dec-08 08:30N 35°27' E 139°42'0 0.0
2017-Dec-08 08:00N 35°27' E 139°42'0 0.0
2017-Dec-08 07:30N 35°27' E 139°42'0 0.0
2017-Dec-08 07:00N 35°27' E 139°42'0 0.1
2017-Dec-08 06:30N 35°27' E 139°42'0 0.0
2017-Dec-08 06:00N 35°27' E 139°42'0 0.0
2017-Dec-08 05:30N 35°27' E 139°42'0 0.1
2017-Dec-08 05:00N 35°27' E 139°42'0 0.1
2017-Dec-08 04:30N 35°27' E 139°42'0 0.0
2017-Dec-08 04:00N 35°27' E 139°42'0 0.0
2017-Dec-08 03:30N 35°27' E 139°42'0 0.1
2017-Dec-08 03:00N 35°27' E 139°42'0 0.1
2017-Dec-08 02:30N 35°27' E 139°42'0 0.0
2017-Dec-08 02:00N 35°27' E 139°42'0 0.0
2017-Dec-08 01:30N 35°27' E 139°42'0 0.0
2017-Dec-08 01:00N 35°27' E 139°42'0 0.1
2017-Dec-08 00:30N 35°27' E 139°42'0 0.1
2017-Dec-08 00:00N 35°27' E 139°42'4 8.0
2017-Dec-07 23:31N 35°23' E 139°43'612.0
2017-Dec-07 23:00N 35°17' E 139°45'612.1
2017-Dec-07 22:30N 35°11' E 139°47'612.6
2017-Dec-07 22:00N 35°05' E 139°46'612.7
2017-Dec-07 21:30N 34°59' E 139°44'510.0
2017-Dec-07 20:59N 34°54' E 139°47'17 8.8
2017-Dec-07 19:05N 34°58' E 140°06'  
2017-Dec-01 21:53N 41°46' E 141°14'411.3
2017-Dec-01 21:30N 41°42' E 141°15'610.9
2017-Dec-01 21:00N 41°37' E 141°19'5 9.4
2017-Dec-01 20:30N 41°34' E 141°23'5 9.3
2017-Dec-01 20:00N 41°30' E 141°28'5 9.5
2017-Dec-01 19:30N 41°27' E 141°32'  
Track history (hours):
 
Tides and Currents Weather Stations Pressure Air Temp Water Temp Dewpoint Dewpoint Depression Visibility Wind Speed Wind Dir Waves Ship Positions

Kaisho Maru

Last reported at 2017-Dec-11 17:01 UTC. Time now 2017-Dec-12 12:27 UTC.
Position N 35°22' E 139°41'.

Length 74 m; draft 4.5 m.

Type: Cargo ship. MMSI: 431002702.

Date/timePositionNaut miles runAvg speedWind from/ knotsBaromVisibWave heightAir tempDewpointWater temp
2017-Dec-11 17:01N 35°22' E 139°41'0 0.0
2017-Dec-11 16:31N 35°22' E 139°41'0 0.0
2017-Dec-11 16:00N 35°22' E 139°41'0 0.0
2017-Dec-11 15:30N 35°22' E 139°41'0 0.0
2017-Dec-11 15:00N 35°22' E 139°41'0 0.0
2017-Dec-11 14:30N 35°22' E 139°41'0 0.1
2017-Dec-11 14:00N 35°22' E 139°41'0 0.0
2017-Dec-11 13:30N 35°22' E 139°41'0 0.0
2017-Dec-11 13:00N 35°22' E 139°41'0 0.0
2017-Dec-11 12:30N 35°22' E 139°41'0 0.0
2017-Dec-11 12:00N 35°22' E 139°41'0 0.0
2017-Dec-11 11:30N 35°22' E 139°41'0 0.0
2017-Dec-11 11:00N 35°22' E 139°41'0 0.0
2017-Dec-11 10:30N 35°22' E 139°41'0 0.0
2017-Dec-11 10:00N 35°22' E 139°41'0 0.0
2017-Dec-11 09:31N 35°22' E 139°41'0 0.0
2017-Dec-11 09:00N 35°22' E 139°41'0 0.0
2017-Dec-11 08:31N 35°22' E 139°41'0 0.0
2017-Dec-11 08:01N 35°22' E 139°41'0 0.0
2017-Dec-11 07:31N 35°22' E 139°41'0 0.0
2017-Dec-11 06:55N 35°22' E 139°41'0 0.0
2017-Dec-11 06:22N 35°22' E 139°41'0 0.0
2017-Dec-11 05:56N 35°22' E 139°41'0 0.0
2017-Dec-11 05:29N 35°22' E 139°41'0 0.0
2017-Dec-11 04:59N 35°22' E 139°41'0 0.0
2017-Dec-11 04:29N 35°22' E 139°41'0 0.0
2017-Dec-11 03:59N 35°22' E 139°41'0 0.0
2017-Dec-11 03:29N 35°22' E 139°41'0 0.0
2017-Dec-11 02:58N 35°22' E 139°41'0 0.0
2017-Dec-11 02:28N 35°22' E 139°41'0 0.0
2017-Dec-11 01:59N 35°22' E 139°41'0 0.0
2017-Dec-11 01:28N 35°22' E 139°41'0 0.0
2017-Dec-11 00:58N 35°22' E 139°41'0 0.0
2017-Dec-11 00:29N 35°22' E 139°41'0 0.0
2017-Dec-10 23:59N 35°22' E 139°41'0 0.0
2017-Dec-10 23:26N 35°22' E 139°41'0 0.0
2017-Dec-10 22:58N 35°22' E 139°41'0 0.0
2017-Dec-10 22:29N 35°22' E 139°41'0 0.0
2017-Dec-10 21:58N 35°22' E 139°41'0 0.0
2017-Dec-10 21:28N 35°22' E 139°41'0 0.0
2017-Dec-10 20:58N 35°22' E 139°41'0 0.0
2017-Dec-10 20:28N 35°22' E 139°41'0 0.0
2017-Dec-10 19:58N 35°22' E 139°41'0 0.0
2017-Dec-10 19:28N 35°22' E 139°41'0 0.0
2017-Dec-10 18:58N 35°22' E 139°41'0 0.0
2017-Dec-10 18:28N 35°22' E 139°41'0 0.0
2017-Dec-10 18:00N 35°22' E 139°41'4 8.3
2017-Dec-10 17:30N 35°25' E 139°44'510.9
2017-Dec-10 17:00N 35°28' E 139°49'711.1
2017-Dec-10 16:24N 35°32' E 139°56'410.9
2017-Dec-10 16:01N 35°33' E 140°01'5 9.1
2017-Dec-10 15:30N 35°33' E 140°06'0 0.0
2017-Dec-10 01:27N 35°33' E 140°07'3 5.7
2017-Dec-10 01:00N 35°34' E 140°04'0 0.0
2017-Dec-10 00:30N 35°34' E 140°04'0 0.0
2017-Dec-09 23:57N 35°34' E 140°04'0 0.1
2017-Dec-09 23:30N 35°34' E 140°04'0 0.0
2017-Dec-09 22:57N 35°34' E 140°04'0 0.1
2017-Dec-09 22:30N 35°34' E 140°04'0 0.0
2017-Dec-09 22:00N 35°34' E 140°04'0 0.1
2017-Dec-09 21:30N 35°34' E 140°04'0 0.1
2017-Dec-09 21:00N 35°34' E 140°04'0 0.0
2017-Dec-09 20:21N 35°34' E 140°04'0 0.0
2017-Dec-09 19:57N 35°34' E 140°04'0 0.0
2017-Dec-09 19:30N 35°34' E 140°04'0 0.0
2017-Dec-09 18:57N 35°34' E 140°04'0 0.0
2017-Dec-09 18:30N 35°34' E 140°04'0 0.0
2017-Dec-09 17:57N 35°34' E 140°04'0 0.0
2017-Dec-09 17:30N 35°34' E 140°04'0 0.0
2017-Dec-09 17:00N 35°34' E 140°04'0 0.0
2017-Dec-09 16:30N 35°34' E 140°04'0 0.1
2017-Dec-09 15:56N 35°34' E 140°04'0 0.1
2017-Dec-09 15:30N 35°34' E 140°04'0 0.0
2017-Dec-09 15:00N 35°34' E 140°04'0 0.0
2017-Dec-09 14:27N 35°34' E 140°04'0 0.0
2017-Dec-09 13:57N 35°34' E 140°04'0 0.0
2017-Dec-09 13:29N 35°34' E 140°04'0 0.0
2017-Dec-09 13:00N 35°34' E 140°04'0 0.0
2017-Dec-09 12:29N 35°34' E 140°04'0 0.0
2017-Dec-09 12:00N 35°34' E 140°04'0 0.0
2017-Dec-09 11:27N 35°34' E 140°04'0 0.0
2017-Dec-09 10:56N 35°34' E 140°04'0 0.0
2017-Dec-09 10:27N 35°34' E 140°04'0 0.0
2017-Dec-09 09:59N 35°34' E 140°04'0 0.0
2017-Dec-09 09:30N 35°34' E 140°04'0 0.0
2017-Dec-09 09:00N 35°34' E 140°04'0 0.0
2017-Dec-09 08:27N 35°34' E 140°04'0 0.0
2017-Dec-09 07:57N 35°34' E 140°04'0 0.2
2017-Dec-09 07:30N 35°34' E 140°04'0 0.1
2017-Dec-09 06:59N 35°34' E 140°04'0 0.0
2017-Dec-09 06:26N 35°34' E 140°04'0 0.0
2017-Dec-09 06:00N 35°34' E 140°04'0 0.0
2017-Dec-09 05:29N 35°34' E 140°04'0 0.0
2017-Dec-09 04:56N 35°34' E 140°04'0 0.0
2017-Dec-09 04:30N 35°34' E 140°04'0 0.0
2017-Dec-09 03:57N 35°34' E 140°04'0 0.0
2017-Dec-09 03:26N 35°34' E 140°04'0 0.0
2017-Dec-09 03:00N 35°34' E 140°04'0 0.0
2017-Dec-09 02:30N 35°34' E 140°04'0 0.0
2017-Dec-09 01:56N 35°34' E 140°04'4 8.3
2017-Dec-09 01:28N 35°33' E 139°59'612.3
2017-Dec-09 01:00N 35°30' E 139°53'612.1
2017-Dec-09 00:30N 35°27' E 139°47'4 7.5
2017-Dec-09 00:01N 35°27' E 139°42'0 0.0
2017-Dec-08 23:30N 35°27' E 139°42'0 0.0
2017-Dec-08 23:01N 35°27' E 139°42'0 0.1
2017-Dec-08 22:28N 35°27' E 139°42'0 0.0
2017-Dec-08 22:00N 35°27' E 139°42'0 0.0
2017-Dec-08 21:31N 35°27' E 139°42'0 0.1
2017-Dec-08 20:58N 35°27' E 139°42'0 0.1
2017-Dec-08 20:31N 35°27' E 139°42'0 0.0
2017-Dec-08 20:00N 35°27' E 139°42'0 0.1
2017-Dec-08 19:30N 35°27' E 139°42'0 0.1
2017-Dec-08 19:01N 35°27' E 139°42'0 0.1
2017-Dec-08 18:31N 35°27' E 139°42'0 0.0
2017-Dec-08 18:00N 35°27' E 139°42'0 0.0
2017-Dec-08 17:30N 35°27' E 139°42'0 0.0
2017-Dec-08 17:00N 35°27' E 139°42'0 0.0
2017-Dec-08 16:30N 35°27' E 139°42'0 0.1
2017-Dec-08 16:01N 35°27' E 139°42'0 0.1
2017-Dec-08 15:30N 35°27' E 139°42'0 0.1
2017-Dec-08 15:01N 35°27' E 139°42'0 0.0
2017-Dec-08 14:31N 35°27' E 139°42'0 0.0
2017-Dec-08 14:01N 35°27' E 139°42'0 0.1
2017-Dec-08 13:31N 35°27' E 139°42'0 0.0
2017-Dec-08 12:54N 35°27' E 139°42'0 0.0
2017-Dec-08 12:30N 35°27' E 139°42'0 0.0
2017-Dec-08 12:00N 35°27' E 139°42'0 0.0
2017-Dec-08 11:30N 35°27' E 139°42'0 0.0
2017-Dec-08 11:00N 35°27' E 139°42'0 0.0
2017-Dec-08 10:30N 35°27' E 139°42'0 0.0
2017-Dec-08 10:00N 35°27' E 139°42'0 0.0
2017-Dec-08 09:30N 35°27' E 139°42'0 0.0
2017-Dec-08 09:00N 35°27' E 139°42'0 0.0
2017-Dec-08 08:30N 35°27' E 139°42'0 0.0
2017-Dec-08 08:00N 35°27' E 139°42'0 0.0
2017-Dec-08 07:30N 35°27' E 139°42'0 0.0
2017-Dec-08 07:00N 35°27' E 139°42'0 0.1
2017-Dec-08 06:30N 35°27' E 139°42'0 0.0
2017-Dec-08 06:00N 35°27' E 139°42'0 0.0
2017-Dec-08 05:30N 35°27' E 139°42'0 0.1
2017-Dec-08 05:00N 35°27' E 139°42'0 0.1
2017-Dec-08 04:30N 35°27' E 139°42'0 0.0
2017-Dec-08 04:00N 35°27' E 139°42'0 0.0
2017-Dec-08 03:30N 35°27' E 139°42'0 0.1
2017-Dec-08 03:00N 35°27' E 139°42'0 0.1
2017-Dec-08 02:30N 35°27' E 139°42'0 0.0
2017-Dec-08 02:00N 35°27' E 139°42'0 0.0
2017-Dec-08 01:30N 35°27' E 139°42'0 0.0
2017-Dec-08 01:00N 35°27' E 139°42'0 0.1
2017-Dec-08 00:30N 35°27' E 139°42'0 0.1
2017-Dec-08 00:00N 35°27' E 139°42'4 8.0
2017-Dec-07 23:31N 35°23' E 139°43'612.0
2017-Dec-07 23:00N 35°17' E 139°45'612.1
2017-Dec-07 22:30N 35°11' E 139°47'612.6
2017-Dec-07 22:00N 35°05' E 139°46'612.7
2017-Dec-07 21:30N 34°59' E 139°44'510.0
2017-Dec-07 20:59N 34°54' E 139°47'17 8.8
2017-Dec-07 19:05N 34°58' E 140°06'  
2017-Dec-01 21:53N 41°46' E 141°14'411.3
2017-Dec-01 21:30N 41°42' E 141°15'610.9
2017-Dec-01 21:00N 41°37' E 141°19'5 9.4
2017-Dec-01 20:30N 41°34' E 141°23'5 9.3
2017-Dec-01 20:00N 41°30' E 141°28'5 9.5
2017-Dec-01 19:30N 41°27' E 141°32'  

Dump ship's entire track history